Time;durP1;ratioP1;P1;durP2;ratioP2;P2;SDS_P1;SDS_P2;PMS_P1;PMS_P2;Temp;Humidity;BMP_temperature;BMP_pressure;BME280_temperature;BME280_humidity;BME280_pressure;Samples;Min_cycle;Max_cycle;Signal;HPM_P1;HPM_P2
2023/01/17 00:01:28;;;;;;;4.07;1.00;;;;;;;;;;6308248;22;20391;-84
2023/01/17 00:10:25;;;;;;;1.57;0.80;;;3.20;99.90;;;;;;6307144;22;20026;-84
2023/01/17 00:13:09;;;;;;;1.50;0.80;;;;;;;;;;6307229;22;20022;-84
2023/01/17 00:15:54;;;;;;;2.87;0.90;;;;;;;;;;6307367;22;20010;-85
2023/01/17 00:18:38;;;;;;;0.93;0.60;;;;;;;;;;6306352;22;20056;-84
2023/01/17 01:36:00;;;;;;;6.80;1.07;;;;;;;;;;6307025;22;20083;-88
2023/01/17 01:38:45;;;;;;;2.60;1.00;;;;;;;;;;6307065;22;20333;-85
2023/01/17 01:41:29;;;;;;;5.83;1.57;;;;;;;;;;6305829;22;20018;-85
2023/01/17 01:44:43;;;;;;;2.17;0.80;;;2.50;99.90;;;;;;6283536;22;20034;-85
2023/01/17 01:47:33;;;;;;;4.77;0.80;;;;;;;;;;6307069;22;20011;-85
2023/01/17 01:50:20;;;;;;;3.70;0.90;;;2.50;99.90;;;;;;6306435;22;20094;-85
2023/01/17 01:53:05;;;;;;;7.07;3.10;;;2.50;99.90;;;;;;6306427;22;20395;-86
2023/01/17 01:55:50;;;;;;;5.73;1.33;;;;;;;;;;6305738;22;20030;-85
2023/01/17 01:58:37;;;;;;;4.73;0.97;;;2.50;99.90;;;;;;6305745;22;20061;-85
2023/01/17 02:01:21;;;;;;;3.47;1.07;;;;;;;;;;6283165;22;20081;-85
2023/01/17 02:04:08;;;;;;;3.23;0.87;;;;;;;;;;6305182;22;20397;-86
2023/01/17 02:07:01;;;;;;;6.63;1.10;;;2.40;99.90;;;;;;6305496;22;20045;-85
2023/01/17 02:09:46;;;;;;;7.32;1.33;;;;;;;;;;6305731;22;20014;-85
2023/01/17 02:12:31;;;;;;;6.27;0.90;;;;;;;;;;6306836;22;20027;-85
2023/01/17 02:15:16;;;;;;;8.23;1.37;;;;;;;;;;6306199;22;20013;-85
2023/01/17 02:18:28;;;;;;;7.70;1.20;;;2.40;99.90;;;;;;6305254;22;20015;-85
2023/01/17 02:21:16;;;;;;;8.80;1.10;;;;;;;;;;6305207;22;20011;-85
2023/01/17 02:24:19;;;;;;;6.77;1.80;;;2.40;99.90;;;;;;6305502;22;20050;-86
2023/01/17 02:27:27;;;;;;;12.30;2.03;;;2.40;99.90;;;;;;6306613;22;20453;-85
2023/01/17 02:30:15;;;;;;;10.03;1.87;;;;;;;;;;6304835;22;20014;-85
2023/01/17 02:33:05;;;;;;;3.63;0.87;;;2.40;99.90;;;;;;6306818;22;20350;-85
2023/01/17 02:36:06;;;;;;;4.63;1.20;;;;;;;;;;6306572;22;20125;-84
2023/01/17 02:39:02;;;;;;;10.77;1.27;;;;;;;;;;6306803;22;20064;-85
2023/01/17 02:42:01;;;;;;;8.60;1.00;;;2.30;99.90;;;;;;6306748;22;20049;-85
2023/01/17 02:44:45;;;;;;;8.80;1.20;;;;;;;;;;6306786;22;20064;-85
2023/01/17 02:47:30;;;;;;;7.53;1.20;;;;;;;;;;6283113;22;20062;-85
2023/01/17 02:50:18;;;;;;;10.40;1.27;;;2.30;99.90;;;;;;6304802;22;20041;-85
2023/01/17 02:53:09;;;;;;;7.93;1.33;;;;;;;;;;6305256;22;20077;-84
2023/01/17 02:55:58;;;;;;;3.00;1.83;;;2.30;99.90;;;;;;6305296;22;20057;-86
2023/01/17 02:59:03;;;;;;;6.70;2.07;;;2.40;99.90;;;;;;6306577;22;20057;-85
2023/01/17 03:02:05;;;;;;;11.40;1.50;;;2.40;99.90;;;;;;6306608;22;20010;-85
2023/01/17 03:05:11;;;;;;;13.47;2.23;;;2.40;99.90;;;;;;6306641;22;20342;-85
2023/01/17 03:07:56;;;;;;;4.60;2.03;;;;;;;;;;6306556;22;20073;-86
2023/01/17 03:10:41;;;;;;;6.63;1.10;;;;;;;;;;6306645;22;20333;-85
2023/01/17 03:13:26;;;;;;;7.80;1.30;;;;;;;;;;6305772;22;20073;-85
2023/01/17 03:16:18;;;;;;;8.40;1.23;;;2.50;99.90;;;;;;6305427;22;20015;-85
2023/01/17 03:19:03;;;;;;;7.57;0.90;;;;;;;;;;6304352;22;20404;-84
2023/01/17 03:21:48;;;;;;;12.87;1.63;;;;;;;;;;6305322;22;20010;-85
2023/01/17 03:24:32;;;;;;;6.33;0.87;;;;;;;;;;6284950;22;20460;-86
2023/01/17 03:27:17;;;;;;;6.67;1.30;;;;;;;;;;6306830;22;20022;-88
2023/01/17 03:30:01;;;;;;;9.57;1.40;;;;;;;;;;6308425;22;20045;-85
2023/01/17 03:32:46;;;;;;;3.50;1.00;;;;;;;;;;6285225;22;20022;-84
2023/01/17 03:35:30;;;;;;;9.50;2.60;;;;;;;;;;6307829;22;20042;-85
2023/01/17 03:38:15;;;;;;;8.43;0.93;;;;;;;;;;6308411;22;20025;-85
2023/01/17 03:41:00;;;;;;;4.90;1.30;;;;;;;;;;6308010;22;20014;-85
2023/01/17 03:43:44;;;;;;;5.90;1.07;;;;;;;;;;6285583;22;20080;-84
2023/01/17 03:46:29;;;;;;;10.13;2.17;;;;;;;;;;6306406;22;20064;-85
2023/01/17 03:49:15;;;;;;;6.80;1.00;;;;;;;;;;6308420;22;20061;-85
2023/01/17 03:52:00;;;;;;;6.17;1.50;;;;;;;;;;6308381;22;20014;-85
2023/01/17 03:54:45;;;;;;;6.03;1.23;;;;;;;;;;6307449;22;20037;-85
2023/01/17 03:57:29;;;;;;;4.80;1.07;;;;;;;;;;6306456;22;20506;-85
2023/01/17 04:00:14;;;;;;;6.37;1.10;;;;;;;;;;6284843;22;20056;-85
2023/01/17 04:02:59;;;;;;;8.17;1.30;;;;;;;;;;6307062;22;20337;-85
2023/01/17 04:05:43;;;;;;;6.50;1.17;;;;;;;;;;6306303;22;20022;-85
2023/01/17 04:08:28;;;;;;;9.30;1.90;;;;;;;;;;6307166;22;20453;-85
2023/01/17 04:11:12;;;;;;;9.80;0.80;;;;;;;;;;6306707;22;20019;-85
2023/01/17 04:13:57;;;;;;;8.90;1.23;;;;;;;;;;6306498;22;20021;-84
2023/01/17 04:16:42;;;;;;;10.40;3.30;;;;;;;;;;6306029;22;20120;-85
2023/01/17 04:19:26;;;;;;;2.80;1.67;;;;;;;;;;6307145;22;20389;-84
2023/01/17 04:22:11;;;;;;;4.50;1.07;;;;;;;;;;6307752;22;20341;-84
2023/01/17 04:24:56;;;;;;;2.93;0.90;;;;;;;;;;6308029;22;20065;-84
2023/01/17 04:27:41;;;;;;;9.63;1.27;;;;;;;;;;6306010;22;20019;-84
2023/01/17 04:30:26;;;;;;;8.47;1.40;;;;;;;;;;6306307;22;20409;-85
2023/01/17 04:33:10;;;;;;;9.77;1.60;;;;;;;;;;6307873;22;20022;-84
2023/01/17 04:35:55;;;;;;;8.27;1.47;;;;;;;;;;6307701;22;20018;-84
2023/01/17 04:38:40;;;;;;;5.20;1.30;;;;;;;;;;6307122;22;20042;-84
2023/01/17 04:41:24;;;;;;;9.30;1.53;;;;;;;;;;6307682;22;20065;-84
2023/01/17 04:44:09;;;;;;;11.33;1.43;;;;;;;;;;6307867;22;20061;-85
2023/01/17 04:46:53;;;;;;;8.37;1.00;;;;;;;;;;6306170;22;20018;-84
2023/01/17 04:49:37;;;;;;;9.43;1.50;;;;;;;;;;6305695;22;20018;-84
2023/01/17 04:52:22;;;;;;;16.33;1.30;;;;;;;;;;6307625;22;20464;-85
2023/01/17 04:55:07;;;;;;;10.60;1.70;;;;;;;;;;6307809;22;20084;-84
2023/01/17 04:57:52;;;;;;;7.47;1.27;;;;;;;;;;6305749;22;20018;-84
2023/01/17 05:00:36;;;;;;;8.63;1.40;;;;;;;;;;6307027;22;20018;-85
2023/01/17 05:03:22;;;;;;;18.67;1.57;;;1.60;99.90;;;;;;6307626;22;20034;-84
2023/01/17 05:06:07;;;;;;;7.77;1.47;;;;;;;;;;6284789;22;20133;-86
2023/01/17 05:08:51;;;;;;;7.40;1.60;;;;;;;;;;6305762;22;20237;-84
2023/01/17 05:11:36;;;;;;;3.87;0.87;;;;;;;;;;6306674;22;20017;-86
2023/01/17 05:14:24;;;;;;;4.70;0.90;;;;;;;;;;6306117;22;20386;-85
2023/01/17 05:17:10;;;;;;;10.37;1.63;;;;;;;;;;6306010;22;20354;-84
2023/01/17 05:19:54;;;;;;;1.63;0.80;;;;;;;;;;6306501;22;20022;-85
2023/01/17 05:22:38;;;;;;;3.47;1.10;;;;;;;;;;6306860;22;20059;-85
2023/01/17 05:25:24;;;;;;;2.90;0.70;;;;;;;;;;6307246;22;20448;-85
2023/01/17 05:28:09;;;;;;;4.57;1.20;;;;;;;;;;6305918;22;20056;-85
2023/01/17 05:30:54;;;;;;;4.10;0.90;;;;;;;;;;6305435;22;20030;-85
2023/01/17 05:33:38;;;;;;;4.30;0.80;;;;;;;;;;6306614;22;20495;-85
2023/01/17 05:36:23;;;;;;;4.37;1.20;;;;;;;;;;6307391;22;20452;-85
2023/01/17 05:39:08;;;;;;;6.27;1.27;;;;;;;;;;6306869;22;20086;-85
2023/01/17 05:41:52;;;;;;;5.47;0.80;;;;;;;;;;6306630;22;20073;-85
2023/01/17 05:44:37;;;;;;;5.40;1.23;;;;;;;;;;6305384;22;20061;-87
2023/01/17 05:47:22;;;;;;;5.47;1.13;;;;;;;;;;6307080;22;20072;-85
2023/01/17 05:50:06;;;;;;;5.60;1.40;;;;;;;;;;6306898;22;20018;-85
2023/01/17 05:52:52;;;;;;;2.63;0.90;;;;;;;;;;6306492;22;20485;-85
2023/01/17 05:55:38;;;;;;;7.33;1.43;;;;;;;;;;6304933;22;20026;-84
2023/01/17 05:58:23;;;;;;;5.27;1.00;;;;;;;;;;6307116;22;20014;-85
2023/01/17 06:01:07;;;;;;;8.27;1.83;;;;;;;;;;6304605;22;20010;-85
2023/01/17 06:03:52;;;;;;;3.87;0.80;;;;;;;;;;6304892;22;20027;-85
2023/01/17 06:06:36;;;;;;;1.73;0.70;;;;;;;;;;6305546;22;20060;-85
2023/01/17 06:09:21;;;;;;;6.27;1.30;;;;;;;;;;6305468;22;20014;-85
2023/01/17 06:12:05;;;;;;;3.03;1.00;;;;;;;;;;6283059;22;20019;-86
2023/01/17 06:14:50;;;;;;;4.93;1.27;;;;;;;;;;6305883;22;20081;-86
2023/01/17 06:17:37;;;;;;;7.80;1.20;;;;;;;;;;6283346;22;20014;-88
2023/01/17 06:20:21;;;;;;;8.60;1.07;;;;;;;;;;6305092;22;20053;-85
2023/01/17 06:23:07;;;;;;;3.43;1.30;;;;;;;;;;6304490;22;20064;-86
2023/01/17 06:25:52;;;;;;;5.70;1.20;;;;;;;;;;6305204;22;20464;-85
2023/01/17 06:28:36;;;;;;;4.63;0.90;;;;;;;;;;6305283;22;20342;-84
2023/01/17 06:31:21;;;;;;;3.07;1.17;;;;;;;;;;6305434;22;20365;-85
2023/01/17 06:34:05;;;;;;;5.67;1.23;;;;;;;;;;6304624;22;20075;-86
2023/01/17 06:36:50;;;;;;;7.40;1.40;;;;;;;;;;6304602;22;20010;-85
2023/01/17 06:39:34;;;;;;;5.70;1.57;;;;;;;;;;6305156;22;20323;-85
2023/01/17 06:42:19;;;;;;;2.63;0.70;;;;;;;;;;6306334;22;20010;-86
2023/01/17 06:45:04;;;;;;;7.00;1.20;;;;;;;;;;6304600;22;20448;-86
2023/01/17 06:47:48;;;;;;;9.73;1.40;;;;;;;;;;6304700;22;20014;-85
2023/01/17 06:50:33;;;;;;;4.87;1.07;;;;;;;;;;6304425;22;20083;-85
2023/01/17 06:53:17;;;;;;;2.60;0.90;;;;;;;;;;6304802;22;20027;-85
2023/01/17 06:56:02;;;;;;;9.17;2.40;;;;;;;;;;6304244;22;20019;-86
2023/01/17 06:58:51;;;;;;;5.23;1.07;;;;;;;;;;6307754;22;20064;-85
2023/01/17 07:01:35;;;;;;;5.43;1.60;;;;;;;;;;6308648;22;20017;-86
2023/01/17 07:04:20;;;;;;;5.17;1.87;;;;;;;;;;6307326;22;20095;-86
2023/01/17 07:07:04;;;;;;;5.43;1.20;;;;;;;;;;6306844;22;20010;-87
2023/01/17 07:09:49;;;;;;;16.57;2.07;;;;;;;;;;6306990;22;20018;-89
2023/01/17 07:12:34;;;;;;;7.73;1.53;;;;;;;;;;6307996;22;20022;-86
2023/01/17 07:15:18;;;;;;;6.30;1.40;;;;;;;;;;6307610;22;20018;-86
2023/01/17 07:18:03;;;;;;;7.27;1.60;;;;;;;;;;6285035;22;20053;-86
2023/01/17 07:20:48;;;;;;;4.97;1.10;;;;;;;;;;6307380;22;20068;-86
2023/01/17 07:23:33;;;;;;;21.00;1.63;;;;;;;;;;6285388;22;20064;-86
2023/01/17 07:26:18;;;;;;;3.63;1.37;;;;;;;;;;6307341;22;20053;-86
2023/01/17 07:29:03;;;;;;;4.87;1.37;;;0.60;99.90;;;;;;6306709;22;20095;-86
2023/01/17 07:31:48;;;;;;;7.67;1.27;;;;;;;;;;6308178;22;20088;-86
2023/01/17 07:34:32;;;;;;;4.07;1.10;;;;;;;;;;6307863;22;20023;-87
2023/01/17 07:37:18;;;;;;;8.97;1.40;;;;;;;;;;6306493;22;20452;-86
2023/01/17 07:40:03;;;;;;;4.40;0.90;;;;;;;;;;6306541;22;20030;-86
2023/01/17 07:42:48;;;;;;;5.17;1.23;;;;;;;;;;6306831;22;20496;-86
2023/01/17 07:45:32;;;;;;;6.17;1.20;;;;;;;;;;6308166;22;20034;-86
2023/01/17 07:48:18;;;;;;;5.03;0.80;;;0.70;99.90;;;;;;6307692;22;20456;-87
2023/01/17 07:51:03;;;;;;;6.13;1.40;;;;;;;;;;6263112;22;20018;-87
2023/01/17 07:53:48;;;;;;;3.00;1.27;;;;;;;;;;6306783;22;20080;-86
2023/01/17 07:56:36;;;;;;;4.17;0.97;;;;;;;;;;6306776;22;20022;-86
2023/01/17 07:59:20;;;;;;;4.43;1.30;;;;;;;;;;6305866;22;20095;-87
2023/01/17 08:02:05;;;;;;;3.83;1.00;;;;;;;;;;6307464;22;20072;-86
2023/01/17 08:04:50;;;;;;;3.43;1.00;;;;;;;;;;6306629;22;20014;-86
2023/01/17 08:07:34;;;;;;;4.57;1.27;;;;;;;;;;6308042;22;20065;-86
2023/01/17 08:10:19;;;;;;;5.97;1.30;;;;;;;;;;6306247;22;20018;-86
2023/01/17 08:13:04;;;;;;;7.07;1.60;;;;;;;;;;6305732;22;20022;-86
2023/01/17 08:15:48;;;;;;;6.30;1.63;;;;;;;;;;6307921;22;20014;-87
2023/01/17 08:18:34;;;;;;;3.63;1.00;;;;;;;;;;6306352;22;20037;-87
2023/01/17 08:21:19;;;;;;;3.67;0.90;;;;;;;;;;6284316;22;20014;-86
2023/01/17 08:24:03;;;;;;;5.50;1.33;;;;;;;;;;6307319;22;20091;-86
2023/01/17 08:26:48;;;;;;;4.40;1.00;;;;;;;;;;6285005;22;20054;-87
2023/01/17 08:29:33;;;;;;;6.63;1.30;;;;;;;;;;6306625;22;20043;-86
2023/01/17 08:32:18;;;;;;;8.57;1.43;;;;;;;;;;6306028;22;20087;-86
2023/01/17 08:35:03;;;;;;;5.53;1.23;;;;;;;;;;6306121;22;20013;-88
2023/01/17 08:37:48;;;;;;;5.27;1.20;;;;;;;;;;6307783;22;20134;-86
2023/01/17 08:40:33;;;;;;;6.70;2.57;;;;;;;;;;6307705;22;20026;-86
2023/01/17 08:43:18;;;;;;;5.63;1.67;;;;;;;;;;6305960;22;20018;-86
2023/01/17 08:46:05;;;;;;;5.60;1.23;;;;;;;;;;6306524;22;20096;-86
2023/01/17 08:48:54;;;;;;;3.80;1.10;;;1.00;99.90;;;;;;6306412;22;20014;-87
2023/01/17 08:51:39;;;;;;;7.63;2.03;;;;;;;;;;6306010;22;20015;-87
2023/01/17 08:54:23;;;;;;;7.03;1.27;;;;;;;;;;6305242;22;20019;-85
2023/01/17 08:57:09;;;;;;;7.87;1.27;;;;;;;;;;6305552;22;20065;-87
2023/01/17 08:59:54;;;;;;;4.73;1.17;;;;;;;;;;6306054;22;20330;-87
2023/01/17 09:02:38;;;;;;;5.43;1.30;;;;;;;;;;6284363;22;20022;-86
2023/01/17 09:05:22;;;;;;;6.53;1.30;;;;;;;;;;6283975;22;20061;-86
2023/01/17 09:08:08;;;;;;;6.17;1.53;;;;;;;;;;6307241;22;20468;-90
2023/01/17 09:10:52;;;;;;;3.57;1.87;;;;;;;;;;6305633;22;20015;-88
2023/01/17 09:13:37;;;;;;;6.57;1.33;;;;;;;;;;6306369;22;20038;-88
2023/01/17 09:16:22;;;;;;;5.20;1.60;;;;;;;;;;6304966;22;20022;-88
2023/01/17 09:19:07;;;;;;;4.57;1.60;;;;;;;;;;6305844;22;20022;-88
2023/01/17 09:21:51;;;;;;;6.67;2.40;;;;;;;;;;6307005;22;20018;-88
2023/01/17 09:24:36;;;;;;;3.83;1.03;;;;;;;;;;6306134;22;20015;-88
2023/01/17 09:27:21;;;;;;;3.40;1.03;;;;;;;;;;6305456;22;20068;-88
2023/01/17 09:30:05;;;;;;;8.07;1.10;;;;;;;;;;6305975;22;20037;-88
2023/01/17 09:32:54;;;;;;;7.07;1.37;;;;;;;;;;6305894;22;20018;-88
2023/01/17 09:35:38;;;;;;;2.63;1.13;;;;;;;;;;6305960;22;20448;-88
2023/01/17 09:38:23;;;;;;;3.30;1.00;;;;;;;;;;6305495;22;20014;-89
2023/01/17 09:41:21;;;;;;;6.90;1.40;;;1.80;99.90;;;;;;6305934;22;20014;-88
2023/01/17 09:44:26;;;;;;;14.97;3.53;;;1.90;99.90;;;;;;6305544;22;20077;-88
2023/01/17 09:47:29;;;;;;;;;;;1.90;99.90;;;;;;6307292;22;20014;-87
2023/01/17 09:51:01;;;;;;;10.47;1.33;;;1.90;99.90;;;;;;6306404;22;19914;-87
2023/01/17 09:53:46;;;;;;;3.87;1.40;;;;;;;;;;6161017;23;20020;-87
2023/01/17 09:56:34;;;;;;;8.83;1.27;;;;;;;;;;6306418;22;20018;-88
2023/01/17 09:59:51;;;;;;;9.47;1.47;;;;;;;;;;6304711;22;20020;-88
2023/01/17 10:02:42;;;;;;;2.23;1.03;;;;;;;;;;6254810;22;20393;-88
2023/01/17 10:05:27;;;;;;;3.87;1.17;;;;;;;;;;6305358;22;20014;-88
2023/01/17 10:08:32;;;;;;;4.73;1.20;;;;;;;;;;6305607;22;20014;-88
2023/01/17 10:11:38;;;;;;;4.00;1.43;;;2.50;99.90;;;;;;6304997;22;20014;-88
2023/01/17 10:14:41;;;;;;;4.13;1.37;;;;;;;;;;6305054;22;20018;-89
2023/01/17 10:17:56;;;;;;;5.23;1.50;;;2.50;99.90;;;;;;6306560;22;20015;-88
2023/01/17 10:20:55;;;;;;;9.45;3.10;;;2.60;99.90;;;;;;6268153;22;20023;-88
2023/01/17 10:23:59;;;;;;;5.70;1.53;;;;;;;;;;6306372;22;20014;-88
2023/01/17 10:26:51;;;;;;;4.80;1.10;;;2.60;99.90;;;;;;6305486;22;20014;-88
2023/01/17 10:29:36;;;;;;;4.90;1.47;;;;;;;;;;6305185;22;20010;-88
2023/01/17 10:32:25;;;;;;;8.13;1.60;;;;;;;;;;6305024;22;20089;-88
2023/01/17 10:35:16;;;;;;;5.63;2.07;;;;;;;;;;6306900;22;20100;-88
2023/01/17 10:38:05;;;;;;;7.60;2.43;;;;;;;;;;6305659;22;20042;-88
2023/01/17 10:40:54;;;;;;;3.43;1.17;;;;;;;;;;6307000;22;20013;-88
2023/01/17 10:44:01;;;;;;;9.67;1.30;;;2.80;99.90;;;;;;6305067;22;20061;-88
2023/01/17 10:47:09;;;;;;;6.33;1.10;;;2.70;99.90;;;;;;6305607;22;20013;-88
2023/01/17 10:49:57;;;;;;;5.83;1.13;;;2.80;99.90;;;;;;6305645;22;20059;-87
2023/01/17 10:53:17;;;;;;;7.83;1.50;;;2.80;99.90;;;;;;6304918;22;20018;-88
2023/01/17 10:56:03;;;;;;;6.43;1.50;;;2.80;99.90;;;;;;6301671;22;20086;-86
2023/01/17 10:58:48;;;;;;;4.33;1.23;;;;;;;;;;6283236;22;20453;-88
2023/01/17 11:01:33;;;;;;;3.33;1.57;;;;;;;;;;6305681;22;20036;-87
2023/01/17 11:04:30;;;;;;;5.37;1.23;;;2.90;99.90;;;;;;6305366;22;20341;-88
2023/01/17 11:07:16;;;;;;;10.17;1.70;;;;;;;;;;6306497;22;20561;-88
2023/01/17 11:10:01;;;;;;;4.83;1.70;;;;;;;;;;6306646;22;20014;-88
2023/01/17 11:12:46;;;;;;;4.47;1.67;;;;;;;;;;6304345;22;20014;-88
2023/01/17 11:15:32;;;;;;;3.33;1.03;;;;;;;;;;6305927;22;20030;-88
2023/01/17 11:18:20;;;;;;;4.40;1.20;;;;;;;;;;6306475;22;20465;-88
2023/01/17 11:21:10;;;;;;;5.97;1.30;;;;;;;;;;6305588;22;20081;-88
2023/01/17 11:23:56;;;;;;;8.47;1.60;;;;;;;;;;6305067;22;20017;-87
2023/01/17 11:26:48;;;;;;;7.13;1.50;;;3.10;99.90;;;;;;6305672;22;20057;-87
2023/01/17 11:29:38;;;;;;;7.63;1.20;;;3.10;99.90;;;;;;6304592;22;20050;-88
2023/01/17 11:32:22;;;;;;;3.53;1.20;;;;;;;;;;6306212;22;20460;-87
2023/01/17 11:35:07;;;;;;;4.23;1.40;;;;;;;;;;6305106;22;20018;-87
2023/01/17 11:38:10;;;;;;;6.23;1.20;;;3.20;99.90;;;;;;6305804;22;20009;-88
2023/01/17 11:41:18;;;;;;;8.40;1.98;;;;;;;;;;6306200;22;20103;-88
2023/01/17 11:43:59;;;;;;;;;;;3.30;99.90;;;;;;6306715;22;20022;-89
2023/01/17 11:46:44;;;;;;;7.18;1.25;;;;;;;;;;6306501;22;19960;-88
2023/01/17 11:49:28;;;;;;;5.43;1.63;;;;;;;;;;6307092;22;20014;-89
2023/01/17 11:52:32;;;;;;;3.13;1.00;;;;;;;;;;6307530;22;20018;-87
2023/01/17 11:55:17;;;;;;;3.45;0.77;;;;;;;;;;6308101;22;20030;-88
2023/01/17 11:58:01;;;;;;;9.40;1.33;;;;;;;;;;6287091;22;20073;-86
2023/01/17 12:00:58;;;;;;;7.97;2.27;;;3.40;99.90;;;;;;6307471;22;20076;-86
2023/01/17 12:04:21;;;;;;;4.53;1.33;;;3.50;99.90;;;;;;6307686;22;20357;-86
2023/01/17 12:07:31;;;;;;;3.47;1.47;;;;;;;;;;6304421;22;20083;-86
2023/01/17 12:10:34;;;;;;;3.27;1.00;;;;;;;;;;6308183;22;20068;-86
2023/01/17 12:16:59;;;;;;;5.30;1.57;;;3.50;99.90;;;;;;6307180;22;20021;-86
2023/01/17 12:19:56;;;;;;;6.97;1.10;;;;;;;;;;6307005;22;20022;-86
2023/01/17 12:23:04;;;;;;;7.83;1.27;;;;;;;;;;6306342;22;20064;-87
2023/01/17 12:26:18;;;;;;;7.23;1.50;;;3.60;99.90;;;;;;6306232;22;20103;-85
2023/01/17 12:29:09;;;;;;;4.13;1.10;;;;;;;;;;6307887;22;20014;-87
2023/01/17 12:31:53;;;;;;;6.57;1.40;;;;;;;;;;6306202;22;20380;-86
2023/01/17 12:34:45;;;;;;;8.33;1.10;;;;;;;;;;6305947;22;20093;-88
2023/01/17 12:37:42;;;;;;;4.70;1.70;;;3.50;99.90;;;;;;6306785;22;20054;-86
2023/01/17 12:40:44;;;;;;;4.27;1.03;;;3.50;99.90;;;;;;6307842;22;20015;-87
2023/01/17 12:43:36;;;;;;;5.37;1.63;;;;;;;;;;6307782;22;20099;-86
2023/01/17 12:46:27;;;;;;;2.63;0.90;;;;;;;;;;6307702;22;20014;-86
2023/01/17 12:49:27;;;;;;;5.87;1.60;;;;;;;;;;6307587;22;20049;-89
2023/01/17 12:52:24;;;;;;;6.97;1.23;;;;;;;;;;6306536;22;20013;-87
2023/01/17 12:55:16;;;;;;;4.53;1.63;;;;;;;;;;6305915;22;20018;-88
2023/01/17 12:58:02;;;;;;;2.23;0.90;;;;;;;;;;6305739;22;20326;-87
2023/01/17 13:00:50;;;;;;;6.33;1.00;;;;;;;;;;6305896;22;20040;-86
2023/01/17 13:03:41;;;;;;;3.83;1.17;;;;;;;;;;6307770;22;20014;-88
2023/01/17 13:06:50;;;;;;;3.83;0.90;;;3.50;99.90;;;;;;6306186;22;20017;-88
2023/01/17 13:10:06;;;;;;;5.73;0.80;;;3.60;99.90;;;;;;6306315;22;20069;-87
2023/01/17 13:12:53;;;;;;;4.60;0.90;;;3.60;99.90;;;;;;6305643;22;20094;-88
2023/01/17 13:15:39;;;;;;;2.43;0.83;;;;;;;;;;6306260;22;20015;-89
2023/01/17 13:18:28;;;;;;;3.03;1.40;;;3.50;99.90;;;;;;6305924;22;20030;-88
2023/01/17 13:21:22;;;;;;;7.80;1.43;;;;;;;;;;6305517;22;20022;-88
2023/01/17 13:24:28;;;;;;;1.52;0.68;;;;;;;;;;6305236;22;20071;-90
2023/01/17 13:27:41;;;;;;;5.10;1.00;;;3.60;99.90;;;;;;6306711;22;20076;-87
2023/01/17 13:30:26;;;;;;;2.03;0.77;;;;;;;;;;6304967;22;20322;-88
2023/01/17 13:33:28;;;;;;;6.80;1.37;;;;;;;;;;6306130;22;20065;-88
2023/01/17 13:36:19;;;;;;;1.97;0.90;;;;;;;;;;6306069;22;20050;-88
2023/01/17 13:39:07;;;;;;;4.83;1.10;;;;;;;;;;6305571;22;20338;-88
2023/01/17 13:41:57;;;;;;;3.33;1.10;;;3.60;99.90;;;;;;6305379;22;20440;-88
2023/01/17 13:44:42;;;;;;;3.30;0.97;;;;;;;;;;6285123;22;20064;-88
2023/01/17 13:47:26;;;;;;;5.03;1.03;;;;;;;;;;6302527;22;20022;-92
2023/01/17 13:50:51;;;;;;;1.80;0.80;;;3.90;99.90;;;;;;6302275;22;20331;-88
2023/01/17 13:53:36;;;;;;;4.47;1.13;;;;;;;;;;6305868;22;20034;-88
2023/01/17 13:56:21;;;;;;;6.27;1.53;;;;;;;;;;6305822;22;20068;-88
2023/01/17 13:59:25;;;;;;;4.57;1.10;;;;;;;;;;6305295;22;20079;-89
2023/01/17 14:02:28;;;;;;;;;;;3.90;99.90;;;;;;6307122;22;20079;-88
2023/01/17 14:05:16;;;;;;;5.27;1.67;;;3.90;99.90;;;;;;6305750;22;20364;-87
2023/01/17 14:08:16;;;;;;;4.10;0.90;;;;;;;;;;6305133;22;20394;-88
2023/01/17 14:11:06;;;;;;;6.13;0.90;;;3.90;99.90;;;;;;6305359;22;20329;-87
2023/01/17 14:13:51;;;;;;;2.40;0.70;;;;;;;;;;6306386;22;20455;-89
2023/01/17 14:16:36;;;;;;;5.83;0.80;;;;;;;;;;6284002;22;20021;-89
2023/01/17 14:19:27;;;;;;;4.70;1.37;;;;;;;;;;6305426;22;20077;-88
2023/01/17 14:22:14;;;;;;;2.87;0.90;;;;;;;;;;6305236;22;20437;-88
2023/01/17 14:25:13;;;;;;;5.30;1.00;;;;;;;;;;6306365;22;20017;-89
2023/01/17 14:28:01;;;;;;;2.23;0.80;;;;;;;;;;6305208;22;20014;-89
2023/01/17 14:30:45;;;;;;;2.80;0.90;;;;;;;;;;6305701;22;20010;-88
2023/01/17 14:33:35;;;;;;;2.70;0.90;;;4.20;99.90;;;;;;6306998;22;20010;-89
2023/01/17 14:36:29;;;;;;;5.07;1.00;;;4.00;99.90;;;;;;6305800;22;20090;-89
2023/01/17 14:39:21;;;;;;;2.87;0.90;;;3.80;99.90;;;;;;6305541;22;20060;-89
2023/01/17 14:42:09;;;;;;;2.67;1.17;;;;;;;;;;6305086;22;20116;-91
2023/01/17 14:45:07;;;;;;;3.93;1.10;;;;;;;;;;6304679;22;20061;-89
2023/01/17 14:47:52;;;;;;;1.33;0.77;;;;;;;;;;6306573;22;20014;-89
2023/01/17 14:50:38;;;;;;;4.80;0.93;;;;;;;;;;6283836;22;20532;-90
2023/01/17 14:53:26;;;;;;;2.27;0.80;;;;;;;;;;6305284;22;20107;-89
2023/01/17 14:56:13;;;;;;;1.60;0.73;;;;;;;;;;6304817;22;20017;-89
2023/01/17 14:59:04;;;;;;;3.63;1.17;;;;;;;;;;6306837;22;20013;-89
2023/01/17 15:01:57;;;;;;;5.07;1.27;;;;;;;;;;6305350;22;20330;-89
2023/01/17 15:04:42;;;;;;;5.87;1.00;;;;;;;;;;6283611;22;20124;-89
2023/01/17 15:07:31;;;;;;;4.37;1.40;;;;;;;;;;6284231;22;20108;-89
2023/01/17 15:10:17;;;;;;;3.50;1.30;;;;;;;;;;6283372;22;20019;-87
2023/01/17 15:13:08;;;;;;;1.90;1.00;;;3.00;99.90;;;;;;6304369;22;20014;-86
2023/01/17 15:16:02;;;;;;;7.93;2.50;;;;;;;;;;6305837;22;20073;-89
2023/01/17 15:18:47;;;;;;;2.45;0.70;;;;;;;;;;6306193;22;20091;-90
2023/01/17 15:21:35;;;;;;;3.27;0.97;;;;;;;;;;6307551;22;20124;-89
2023/01/17 15:24:26;;;;;;;3.70;1.00;;;;;;;;;;6308480;22;20057;-90
2023/01/17 15:27:15;;;;;;;2.93;1.07;;;;;;;;;;6307105;22;20049;-90
2023/01/17 15:30:03;;;;;;;25.13;4.33;;;;;;;;;;6307173;22;20068;-95
2023/01/17 15:32:50;;;;;;;2.50;1.00;;;;;;;;;;6309005;22;20343;-91
2023/01/17 15:35:37;;;;;;;3.73;1.20;;;;;;;;;;6307629;22;20438;-90
2023/01/17 15:38:22;;;;;;;3.53;1.07;;;;;;;;;;6307918;22;20080;-87
2023/01/17 15:41:16;;;;;;;5.77;1.00;;;;;;;;;;6306948;22;20029;-90
2023/01/17 15:44:02;;;;;;;3.13;1.00;;;;;;;;;;6306599;22;20536;-90
2023/01/17 15:46:47;;;;;;;3.03;1.00;;;;;;;;;;6307003;22;20015;-91
2023/01/17 15:49:32;;;;;;;5.90;1.27;;;;;;;;;;6284211;22;20046;-90
2023/01/17 15:52:16;;;;;;;3.47;1.43;;;;;;;;;;6305724;22;20018;-89
2023/01/17 15:55:04;;;;;;;6.13;1.90;;;;;;;;;;6285599;22;20058;-90
2023/01/17 15:57:48;;;;;;;2.87;1.23;;;;;;;;;;6306653;22;20061;-90
2023/01/17 16:00:38;;;;;;;3.77;1.87;;;;;;;;;;6285934;22;20104;-89
2023/01/17 16:03:28;;;;;;;2.73;1.00;;;;;;;;;;6305355;22;20022;-89
2023/01/17 16:06:28;;;;;;;3.13;1.67;;;;;;;;;;6306426;22;20148;-89
2023/01/17 16:09:21;;;;;;;6.63;2.30;;;;;;;;;;6306664;22;20015;-89
2023/01/17 16:12:10;;;;;;;2.77;1.30;;;;;;;;;;6307475;22;20470;-89
2023/01/17 16:15:10;;;;;;;5.27;2.13;;;;;;;;;;6284917;22;20053;-89
2023/01/17 16:18:02;;;;;;;6.30;1.87;;;;;;;;;;6286106;22;20018;-88
2023/01/17 16:20:48;;;;;;;5.70;1.93;;;;;;;;;;6304104;22;20026;-90
2023/01/17 16:23:36;;;;;;;5.50;1.60;;;;;;;;;;6306010;22;20018;-90
2023/01/17 16:26:23;;;;;;;4.47;1.33;;;;;;;;;;6284405;22;20068;-92
2023/01/17 16:29:09;;;;;;;4.40;1.50;;;;;;;;;;6285003;22;20104;-91
2023/01/17 16:31:53;;;;;;;3.83;2.40;;;;;;;;;;6306172;22;20029;-87
2023/01/17 16:34:37;;;;;;;5.17;2.00;;;;;;;;;;6284747;22;20503;-89
2023/01/17 16:37:22;;;;;;;5.93;1.90;;;;;;;;;;6284122;22;20124;-88
2023/01/17 16:40:07;;;;;;;5.53;2.23;;;;;;;;;;6306404;22;20015;-89
2023/01/17 16:42:55;;;;;;;7.43;2.80;;;;;;;;;;6284559;22;20021;-91
2023/01/17 16:45:41;;;;;;;5.37;1.70;;;;;;;;;;6306434;22;20064;-89
2023/01/17 16:48:25;;;;;;;3.90;1.53;;;;;;;;;;6305807;22;20014;-88
2023/01/17 16:51:12;;;;;;;6.00;1.97;;;;;;;;;;6307825;22;20014;-89
2023/01/17 16:53:58;;;;;;;4.27;1.87;;;;;;;;;;6306328;22;20376;-89
2023/01/17 16:56:43;;;;;;;3.90;2.23;;;;;;;;;;6306419;22;20019;-89
2023/01/17 16:59:29;;;;;;;4.93;2.33;;;;;;;;;;6283720;22;20068;-90
2023/01/17 17:02:14;;;;;;;5.53;2.10;;;;;;;;;;6305766;22;20013;-89
2023/01/17 17:05:01;;;;;;;7.67;2.20;;;;;;;;;;6284396;22;20033;-89
2023/01/17 17:07:46;;;;;;;7.47;2.53;;;;;;;;;;6306418;22;20109;-90
2023/01/17 17:10:31;;;;;;;7.77;2.47;;;;;;;;;;6306315;22;20356;-89
2023/01/17 17:13:16;;;;;;;6.03;2.40;;;;;;;;;;6305560;22;20108;-89
2023/01/17 17:16:03;;;;;;;5.10;2.13;;;;;;;;;;6306196;22;20065;-89
2023/01/17 17:18:55;;;;;;;6.87;2.63;;;;;;;;;;6306149;22;20100;-89
2023/01/17 17:21:43;;;;;;;5.77;2.37;;;;;;;;;;6306494;22;20026;-90
2023/01/17 17:24:28;;;;;;;8.17;3.70;;;;;;;;;;6305672;22;20037;-89
2023/01/17 17:27:13;;;;;;;10.90;2.67;;;;;;;;;;6284496;22;20021;-92
2023/01/17 17:30:00;;;;;;;8.90;2.70;;;;;;;;;;6305914;22;20014;-87
2023/01/17 17:32:45;;;;;;;3.80;2.37;;;;;;;;;;6284054;22;20018;-87
2023/01/17 17:35:33;;;;;;;10.73;2.50;;;;;;;;;;6307054;22;20017;-90
2023/01/17 17:38:18;;;;;;;7.20;2.50;;;;;;;;;;6306133;22;20015;-89
2023/01/17 17:41:08;;;;;;;5.53;2.40;;;;;;;;;;6284125;22;20468;-90
2023/01/17 17:43:53;;;;;;;4.23;2.63;;;;;;;;;;6306520;22;20018;-87
2023/01/17 17:46:38;;;;;;;6.07;2.70;;;;;;;;;;6305562;22;20014;-89
2023/01/17 17:49:23;;;;;;;8.93;2.70;;;;;;;;;;6305432;22;20049;-88
2023/01/17 17:52:08;;;;;;;13.00;3.77;;;;;;;;;;6284244;22;20064;-88
2023/01/17 17:54:53;;;;;;;6.93;2.67;;;;;;;;;;6305490;22;20018;-89